createdAt,value
2017-06-10T00:01:38.951Z,2.00
2017-06-10T00:04:06.460Z,2.03
2017-06-10T00:06:33.963Z,4.30
2017-06-10T00:09:01.478Z,2.03
2017-06-10T00:11:28.985Z,2.20
2017-06-10T00:13:56.889Z,2.60
2017-06-10T00:16:24.397Z,3.73
2017-06-10T00:18:51.903Z,5.33
2017-06-10T00:21:20.200Z,2.53
2017-06-10T00:23:47.733Z,3.90
2017-06-10T00:26:15.613Z,3.00
2017-06-10T00:28:43.894Z,2.27
2017-06-10T00:31:12.171Z,3.13
2017-06-10T00:33:39.707Z,2.30
2017-06-10T00:36:07.310Z,2.50
2017-06-10T00:38:35.084Z,3.27
2017-06-10T00:41:02.588Z,2.70
2017-06-10T00:43:30.093Z,3.20
2017-06-10T00:45:57.619Z,2.93
2017-06-10T00:48:25.120Z,3.20
2017-06-10T00:50:52.930Z,3.80
2017-06-10T00:53:20.440Z,3.40
2017-06-10T00:55:47.937Z,3.00
2017-06-10T00:58:15.456Z,3.40
2017-06-10T01:00:42.953Z,5.53
2017-06-10T01:03:10.853Z,4.47
2017-06-10T01:05:39.137Z,4.10
2017-06-10T01:08:06.624Z,5.83
2017-06-10T01:10:34.152Z,4.10
2017-06-10T01:13:01.639Z,4.20
2017-06-10T01:15:29.552Z,3.40
2017-06-10T01:17:57.047Z,4.47
2017-06-10T01:20:24.554Z,4.60
2017-06-10T01:22:52.065Z,4.10
2017-06-10T01:25:20.319Z,4.30
2017-06-10T01:27:48.161Z,3.77
2017-06-10T01:30:15.661Z,3.60
2017-06-10T01:32:43.926Z,3.27
2017-06-10T01:35:11.437Z,2.53
2017-06-10T01:37:38.937Z,3.03
2017-06-10T01:40:06.809Z,2.73
2017-06-10T01:42:34.308Z,2.57
2017-06-10T01:45:01.804Z,2.63
2017-06-10T01:47:29.309Z,2.40
2017-06-10T01:49:57.566Z,3.03
2017-06-10T01:52:25.424Z,2.50
2017-06-10T01:54:52.912Z,2.90
2017-06-10T01:57:20.400Z,2.57
2017-06-10T01:59:47.896Z,3.47
2017-06-10T02:02:15.387Z,2.10
2017-06-10T02:04:44.057Z,2.70
2017-06-10T02:07:11.572Z,2.80
2017-06-10T02:09:39.069Z,2.47
2017-06-10T02:12:06.594Z,2.90
2017-06-10T02:14:34.085Z,2.70
2017-06-10T02:17:01.963Z,2.97
2017-06-10T02:19:29.471Z,3.57
2017-06-10T02:21:56.964Z,3.40
2017-06-10T02:24:24.475Z,2.93
2017-06-10T02:26:51.974Z,3.10
2017-06-10T02:29:19.884Z,6.07
2017-06-10T02:31:48.142Z,3.43
2017-06-10T02:34:15.644Z,4.50
2017-06-10T02:36:43.169Z,3.63
2017-06-10T02:39:11.464Z,4.17
2017-06-10T02:41:39.385Z,4.80
2017-06-10T02:44:06.891Z,5.17
2017-06-10T02:46:35.149Z,5.83
2017-06-10T02:49:02.679Z,4.97
2017-06-10T02:51:31.308Z,7.17
2017-06-10T02:53:59.849Z,6.73
2017-06-10T02:56:27.349Z,7.30
2017-06-10T02:58:55.613Z,6.50
2017-06-10T03:01:23.129Z,6.33
2017-06-10T03:03:50.621Z,7.23
2017-06-10T03:06:18.428Z,7.40
2017-06-10T03:08:45.933Z,8.00
2017-06-10T03:11:13.449Z,8.00
2017-06-10T03:13:41.278Z,6.77
2017-06-10T03:16:08.778Z,6.73
2017-06-10T03:18:36.263Z,7.07
2017-06-10T03:21:03.820Z,7.13
2017-06-10T03:23:31.323Z,6.13
2017-06-10T03:25:59.597Z,5.53
2017-06-10T03:28:27.117Z,6.27
2017-06-10T03:30:55.469Z,5.30
2017-06-10T03:33:23.401Z,7.30
2017-06-10T03:35:50.904Z,6.00
2017-06-10T03:38:18.404Z,7.27
2017-06-10T03:40:45.908Z,7.20
2017-06-10T03:43:13.418Z,11.20
2017-06-10T03:45:41.206Z,5.90
2017-06-10T03:48:08.728Z,5.07
2017-06-10T03:50:36.248Z,6.87
2017-06-10T03:53:04.528Z,5.80
2017-06-10T03:55:32.028Z,6.73
2017-06-10T03:57:59.912Z,5.70
2017-06-10T04:00:27.404Z,5.80
2017-06-10T04:02:54.895Z,7.00
2017-06-10T04:05:22.396Z,4.93
2017-06-10T04:07:49.888Z,6.93
2017-06-10T04:10:18.533Z,7.00
2017-06-10T04:12:46.029Z,5.63
2017-06-10T04:15:13.544Z,6.33
2017-06-10T04:17:41.067Z,6.97
2017-06-10T04:20:08.560Z,11.10
2017-06-10T04:22:36.445Z,7.67
2017-06-10T04:25:03.948Z,6.93
2017-06-10T04:27:31.445Z,5.70
2017-06-10T04:29:58.960Z,5.67
2017-06-10T04:32:26.461Z,9.00
2017-06-10T04:34:54.228Z,7.30
2017-06-10T04:37:21.724Z,9.60
2017-06-10T04:39:49.216Z,12.47
2017-06-10T04:42:16.715Z,7.93
2017-06-10T04:44:44.232Z,7.83
2017-06-10T04:47:12.167Z,6.37
2017-06-10T04:49:39.654Z,6.90
2017-06-10T04:52:07.159Z,5.63
2017-06-10T04:54:34.678Z,7.93
2017-06-10T04:57:02.159Z,7.33
2017-06-10T04:59:29.930Z,9.60
2017-06-10T05:01:57.432Z,4.80
2017-06-10T05:04:25.691Z,5.87
2017-06-10T05:06:53.200Z,6.30
2017-06-10T05:09:20.692Z,4.40
2017-06-10T05:11:48.577Z,8.37
2017-06-10T05:14:16.072Z,4.73
2017-06-10T05:16:43.572Z,8.53
2017-06-10T05:19:11.088Z,6.20
2017-06-10T05:21:38.598Z,5.97
2017-06-10T05:24:06.486Z,5.37
2017-06-10T05:26:33.981Z,7.13
2017-06-10T05:29:01.488Z,4.43
2017-06-10T05:31:29.012Z,5.07
2017-06-10T05:33:56.529Z,6.57
2017-06-10T05:36:25.099Z,3.23
2017-06-10T05:38:52.607Z,4.73
2017-06-10T05:41:20.118Z,3.23
2017-06-10T05:43:47.669Z,6.93
2017-06-10T05:46:15.175Z,4.40
2017-06-10T05:48:43.016Z,5.23
2017-06-10T05:51:10.512Z,7.97
2017-06-10T05:53:38.011Z,5.20
2017-06-10T05:56:05.528Z,4.87
2017-06-10T05:58:33.033Z,7.70
2017-06-10T06:01:01.440Z,7.60
2017-06-10T06:03:29.699Z,7.63
2017-06-10T06:05:57.204Z,5.30
2017-06-10T06:08:24.750Z,6.83
2017-06-10T06:10:52.255Z,6.27
2017-06-10T06:13:20.027Z,7.17
2017-06-10T06:15:47.566Z,4.70
2017-06-10T06:18:15.064Z,4.20
2017-06-10T06:20:42.582Z,5.17
2017-06-10T06:23:10.080Z,4.93
2017-06-10T06:25:37.941Z,8.20
2017-06-10T06:28:05.459Z,6.60
2017-06-10T06:30:32.986Z,6.37
2017-06-10T06:33:00.509Z,4.87
2017-06-10T06:35:27.998Z,3.27
2017-06-10T06:37:55.771Z,5.27
2017-06-10T06:40:24.067Z,6.97
2017-06-10T06:42:51.565Z,5.87
2017-06-10T06:45:19.080Z,5.53
2017-06-10T06:47:46.592Z,6.37
2017-06-10T06:50:14.369Z,5.27
2017-06-10T06:52:41.872Z,6.73
2017-06-10T06:55:10.299Z,4.70
2017-06-10T06:57:37.824Z,5.40
2017-06-10T07:00:05.329Z,4.20
2017-06-10T07:02:33.204Z,5.00
2017-06-10T07:05:00.725Z,5.40
2017-06-10T07:07:28.222Z,3.80
2017-06-10T07:09:55.741Z,8.13
2017-06-10T07:12:23.232Z,6.00
2017-06-10T07:14:50.997Z,6.70
2017-06-10T07:17:19.665Z,3.57
2017-06-10T07:19:47.167Z,5.43
2017-06-10T07:22:15.464Z,5.97
2017-06-10T07:24:42.993Z,7.80
2017-06-10T07:27:10.782Z,4.43
2017-06-10T07:29:39.157Z,7.20
2017-06-10T07:32:07.426Z,7.10
2017-06-10T07:34:34.954Z,7.57
2017-06-10T07:37:02.483Z,3.83
2017-06-10T07:39:30.395Z,3.87
2017-06-10T07:41:57.887Z,5.57
2017-06-10T07:44:25.379Z,5.13
2017-06-10T07:46:52.892Z,9.50
2017-06-10T07:49:20.428Z,6.10
2017-06-10T07:51:48.005Z,7.07
2017-06-10T07:54:16.704Z,4.83
2017-06-10T07:56:44.240Z,3.47
2017-06-10T07:59:12.033Z,4.60
2017-06-10T08:01:40.301Z,6.60
2017-06-10T08:04:08.567Z,6.00
2017-06-10T08:06:36.160Z,5.97
2017-06-10T08:09:03.699Z,4.73
2017-06-10T08:11:32.266Z,5.60
2017-06-10T08:13:59.769Z,4.87
2017-06-10T08:16:27.284Z,5.60
2017-06-10T08:18:54.819Z,4.10
2017-06-10T08:21:22.336Z,5.00
2017-06-10T08:23:50.265Z,7.43
2017-06-10T08:26:17.763Z,5.93
2017-06-10T08:28:45.260Z,5.40
2017-06-10T08:31:12.797Z,7.83
2017-06-10T08:33:40.312Z,5.33
2017-06-10T08:36:08.212Z,6.07
2017-06-10T08:38:35.712Z,10.03
2017-06-10T08:41:03.227Z,7.00
2017-06-10T08:43:30.744Z,5.23
2017-06-10T08:45:58.242Z,7.23
2017-06-10T08:48:26.890Z,5.03
2017-06-10T08:50:54.397Z,4.83
2017-06-10T08:53:21.907Z,4.63
2017-06-10T08:55:49.452Z,5.70
2017-06-10T08:58:16.971Z,4.43
2017-06-10T09:00:44.829Z,4.30
2017-06-10T09:03:12.334Z,2.73
2017-06-10T09:05:39.843Z,4.77
2017-06-10T09:08:11.001Z,5.93
2017-06-10T09:10:38.536Z,3.57
2017-06-10T09:13:07.205Z,3.40
2017-06-10T09:15:34.713Z,2.97
2017-06-10T09:18:02.213Z,4.00
2017-06-10T09:20:29.744Z,6.10
2017-06-10T09:22:57.268Z,4.23
2017-06-10T09:25:25.941Z,5.07
2017-06-10T09:27:53.449Z,5.90
2017-06-10T09:30:20.967Z,5.87
2017-06-10T09:32:48.502Z,4.30
2017-06-10T09:35:16.021Z,3.40
2017-06-10T09:37:43.836Z,4.00
2017-06-10T09:40:11.353Z,5.27
2017-06-10T09:42:38.879Z,5.53
2017-06-10T09:45:06.404Z,4.17
2017-06-10T09:47:33.896Z,6.73
2017-06-10T09:50:02.557Z,4.80
2017-06-10T09:52:30.071Z,3.83
2017-06-10T09:54:57.615Z,3.83
2017-06-10T09:57:25.150Z,4.73
2017-06-10T09:59:52.658Z,4.37
2017-06-10T10:02:20.593Z,3.90
2017-06-10T10:04:48.865Z,5.83
2017-06-10T10:07:16.404Z,3.73
2017-06-10T10:09:43.908Z,4.47
2017-06-10T10:12:11.427Z,3.40
2017-06-10T10:14:39.233Z,3.63
2017-06-10T10:17:06.759Z,2.80
2017-06-10T10:19:34.288Z,4.07
2017-06-10T10:22:01.804Z,3.30
2017-06-10T10:24:29.311Z,4.43
2017-06-10T10:26:57.198Z,5.10
2017-06-10T10:29:24.701Z,3.47
2017-06-10T10:31:52.193Z,3.47
2017-06-10T10:34:19.731Z,2.37
2017-06-10T10:36:48.421Z,4.60
2017-06-10T10:39:16.346Z,3.30
2017-06-10T10:41:43.853Z,4.37
2017-06-10T10:44:11.351Z,3.40
2017-06-10T10:46:38.868Z,4.73
2017-06-10T10:49:06.370Z,5.67
2017-06-10T10:51:34.170Z,5.03
2017-06-10T10:54:01.674Z,4.30
2017-06-10T10:56:29.188Z,3.87
2017-06-10T10:58:56.700Z,4.23
2017-06-10T11:01:24.203Z,8.73
2017-06-10T11:03:52.884Z,3.63
2017-06-10T11:06:20.405Z,2.77
2017-06-10T11:08:47.936Z,3.00
2017-06-10T11:11:15.481Z,3.40
2017-06-10T11:13:42.980Z,5.43
2017-06-10T11:16:10.895Z,4.07
2017-06-10T11:18:38.405Z,2.25
2017-06-10T11:21:07.058Z,5.65
2017-06-10T11:23:34.575Z,6.03
2017-06-10T11:26:02.081Z,4.28
2017-06-10T11:28:30.021Z,4.82
2017-06-10T11:30:58.287Z,3.20
2017-06-10T11:33:26.572Z,4.30
2017-06-10T11:35:55.225Z,3.62
2017-06-10T11:38:22.735Z,4.10
2017-06-10T11:40:50.668Z,4.53
2017-06-10T11:43:18.169Z,3.40
2017-06-10T11:45:45.690Z,3.40
2017-06-10T11:48:13.972Z,3.40
2017-06-10T11:50:42.632Z,5.50
2017-06-10T11:53:10.525Z,3.30
2017-06-10T11:55:38.036Z,3.20
2017-06-10T11:58:05.545Z,6.80
2017-06-10T12:00:33.056Z,4.17
2017-06-10T12:03:00.566Z,4.30
2017-06-10T12:05:28.421Z,1.97
2017-06-10T12:07:55.952Z,4.27
2017-06-10T12:10:23.469Z,2.90
2017-06-10T12:12:51.757Z,2.67
2017-06-10T12:15:19.251Z,3.27
2017-06-10T12:17:46.765Z,3.93
2017-06-10T12:20:14.302Z,6.50
2017-06-10T12:22:41.827Z,5.70
2017-06-10T12:25:09.388Z,6.40
2017-06-10T12:27:36.912Z,4.80
2017-06-10T12:30:04.425Z,3.13
2017-06-10T12:32:32.313Z,3.17
2017-06-10T12:34:59.815Z,4.20
2017-06-10T12:37:27.524Z,2.30
2017-06-10T12:39:55.040Z,3.63
2017-06-10T12:42:22.559Z,5.73
2017-06-10T12:44:51.235Z,7.50
2017-06-10T12:47:18.732Z,4.73
2017-06-10T12:49:48.177Z,5.30
2017-06-10T12:52:15.705Z,2.97
2017-06-10T12:54:43.211Z,2.70
2017-06-10T12:57:11.004Z,2.63
2017-06-10T12:59:39.283Z,3.87
2017-06-10T13:02:07.561Z,3.50
2017-06-10T13:04:35.082Z,3.67
2017-06-10T13:07:02.597Z,3.10
2017-06-10T13:09:30.374Z,2.83
2017-06-10T13:11:57.881Z,3.73
2017-06-10T13:14:25.381Z,4.27
2017-06-10T13:16:52.886Z,2.80
2017-06-10T13:19:20.401Z,4.03
2017-06-10T13:21:49.466Z,4.60
2017-06-10T13:24:17.735Z,3.07
2017-06-10T13:26:45.246Z,3.40
2017-06-10T13:29:13.883Z,2.43
2017-06-10T13:31:41.380Z,3.20
2017-06-10T13:34:09.304Z,3.87
2017-06-10T13:36:37.940Z,4.10
2017-06-10T13:39:05.449Z,3.40
2017-06-10T13:41:33.012Z,2.33
2017-06-10T13:44:00.553Z,5.23
2017-06-10T13:46:28.329Z,2.70
2017-06-10T13:48:55.872Z,3.13
2017-06-10T13:51:23.398Z,2.90
2017-06-10T13:53:52.335Z,3.30
2017-06-10T13:56:19.878Z,3.87
2017-06-10T13:58:47.670Z,4.13
2017-06-10T14:01:15.208Z,4.30
2017-06-10T14:03:42.720Z,3.67
2017-06-10T14:06:10.233Z,4.17
2017-06-10T14:08:37.749Z,5.40
2017-06-10T14:11:05.529Z,2.80
2017-06-10T14:13:33.061Z,3.50
2017-06-10T14:16:01.346Z,4.50
2017-06-10T14:18:28.873Z,2.90
2017-06-10T14:20:56.401Z,2.87
2017-06-10T14:23:24.231Z,6.77
2017-06-10T14:25:51.741Z,9.00
2017-06-10T14:28:19.250Z,4.07
2017-06-10T14:30:46.766Z,2.53
2017-06-10T14:33:15.041Z,4.13
2017-06-10T14:35:42.842Z,4.17
2017-06-10T14:38:10.340Z,2.30
2017-06-10T14:40:37.856Z,2.30
2017-06-10T14:43:06.136Z,1.93
2017-06-10T14:45:33.638Z,2.10
2017-06-10T14:48:01.542Z,4.37
2017-06-10T14:50:29.054Z,4.13
2017-06-10T14:52:56.561Z,3.83
2017-06-10T14:55:24.099Z,3.30
2017-06-10T14:57:51.601Z,3.00
2017-06-10T15:00:20.273Z,3.57
2017-06-10T15:02:50.728Z,4.07
2017-06-10T15:05:18.241Z,3.23
2017-06-10T15:07:45.763Z,3.10
2017-06-10T15:10:13.276Z,3.90
2017-06-10T15:12:41.115Z,3.83
2017-06-10T15:15:08.638Z,5.73
2017-06-10T15:17:36.154Z,2.73
2017-06-10T15:20:03.685Z,2.03
2017-06-10T15:22:32.176Z,2.67
2017-06-10T15:24:59.965Z,3.27
2017-06-10T15:27:27.467Z,3.30
2017-06-10T15:29:54.991Z,3.60
2017-06-10T15:32:26.038Z,3.27
2017-06-10T15:34:53.592Z,5.43
2017-06-10T15:37:21.470Z,3.33
2017-06-10T15:39:49.745Z,3.33
2017-06-10T15:42:17.249Z,5.50
2017-06-10T15:44:44.776Z,3.30
2017-06-10T15:47:12.277Z,3.23
2017-06-10T15:49:40.075Z,3.07
2017-06-10T15:52:07.613Z,2.20
2017-06-10T15:54:35.134Z,5.47
2017-06-10T15:57:02.666Z,2.83
2017-06-10T15:59:30.187Z,5.50
2017-06-10T16:01:58.119Z,3.20
2017-06-10T16:04:25.635Z,6.60
2017-06-10T16:06:53.128Z,5.00
2017-06-10T16:09:21.417Z,5.43
2017-06-10T16:11:49.680Z,4.73
2017-06-10T16:14:18.542Z,5.40
2017-06-10T16:16:46.040Z,3.43
2017-06-10T16:19:13.570Z,3.67
2017-06-10T16:21:41.490Z,4.00
2017-06-10T16:24:09.834Z,4.80
2017-06-10T16:26:38.107Z,4.17
2017-06-10T16:29:05.630Z,2.93
2017-06-10T16:31:33.129Z,3.30
2017-06-10T16:34:00.626Z,2.63
2017-06-10T16:36:29.149Z,4.67
2017-06-10T16:38:56.649Z,4.63
2017-06-10T16:41:24.506Z,2.17
2017-06-10T16:43:52.008Z,3.13
2017-06-10T16:46:19.512Z,5.10
2017-06-10T16:48:47.411Z,4.33
2017-06-10T16:51:14.948Z,3.80
2017-06-10T16:53:43.214Z,5.00
2017-06-10T16:56:10.721Z,3.30
2017-06-10T16:58:38.224Z,3.80
2017-06-10T17:01:06.860Z,4.63
2017-06-10T17:03:34.692Z,3.10
2017-06-10T17:06:02.203Z,4.43
2017-06-10T17:08:29.711Z,2.00
2017-06-10T17:10:58.013Z,5.60
2017-06-10T17:13:25.533Z,2.73
2017-06-10T17:15:53.054Z,3.70
2017-06-10T17:18:20.560Z,4.33
2017-06-10T17:20:48.490Z,3.37
2017-06-10T17:23:16.010Z,4.93
2017-06-10T17:25:44.296Z,4.17
2017-06-10T17:28:11.840Z,5.90
2017-06-10T17:30:40.128Z,5.47
2017-06-10T17:33:08.693Z,4.40
2017-06-10T17:35:36.255Z,2.63
2017-06-10T17:38:04.552Z,5.20
2017-06-10T17:40:32.370Z,6.60
2017-06-10T17:42:59.884Z,4.83
2017-06-10T17:45:27.417Z,2.80
2017-06-10T17:47:54.925Z,3.70
2017-06-10T17:50:22.429Z,4.80
2017-06-10T17:52:49.937Z,4.83
2017-06-10T17:55:17.457Z,2.60
2017-06-10T17:57:45.726Z,3.47
2017-06-10T18:00:13.621Z,3.03
2017-06-10T18:02:41.134Z,4.47
2017-06-10T18:05:08.652Z,5.10
2017-06-10T18:07:36.186Z,6.03
2017-06-10T18:10:04.493Z,3.73
2017-06-10T18:12:32.281Z,4.20
2017-06-10T18:14:59.807Z,3.50
2017-06-10T18:17:27.309Z,5.70
2017-06-10T18:19:54.828Z,5.13
2017-06-10T18:22:22.348Z,4.30
2017-06-10T18:24:50.216Z,5.43
2017-06-10T18:27:17.718Z,4.83
2017-06-10T18:29:45.204Z,2.53
2017-06-10T18:32:12.723Z,6.63
2017-06-10T18:34:40.228Z,3.70
2017-06-10T18:37:08.030Z,2.90
2017-06-10T18:39:35.547Z,5.20
2017-06-10T18:42:06.434Z,2.63
2017-06-10T18:44:33.954Z,5.73
2017-06-10T18:47:01.473Z,6.20
2017-06-10T18:49:29.288Z,3.80
2017-06-10T18:51:56.793Z,6.10
2017-06-10T18:54:25.074Z,3.00
2017-06-10T18:56:52.594Z,2.70
2017-06-10T18:59:20.096Z,6.70
2017-06-10T19:01:48.089Z,5.73
2017-06-10T19:04:15.613Z,3.90
2017-06-10T19:06:43.112Z,5.50
2017-06-10T19:09:10.628Z,3.30
2017-06-10T19:11:38.144Z,3.37
2017-06-10T19:14:06.063Z,5.07
2017-06-10T19:16:34.353Z,3.97
2017-06-10T19:19:01.871Z,4.30
2017-06-10T19:21:29.412Z,2.97
2017-06-10T19:23:56.904Z,4.83
2017-06-10T19:26:25.476Z,4.17
2017-06-10T19:28:52.990Z,5.23
2017-06-10T19:31:20.496Z,3.70
2017-06-10T19:33:48.040Z,3.87
2017-06-10T19:36:15.566Z,3.53
2017-06-10T19:38:43.496Z,3.80
2017-06-10T19:41:11.012Z,5.33
2017-06-10T19:43:38.509Z,3.23
2017-06-10T19:46:06.038Z,5.97
2017-06-10T19:48:33.560Z,5.70
2017-06-10T19:51:01.335Z,5.90
2017-06-10T19:53:28.865Z,3.77
2017-06-10T19:55:56.385Z,5.47
2017-06-10T19:58:23.916Z,5.57
2017-06-10T20:00:51.412Z,5.57
2017-06-10T20:03:19.196Z,3.80
2017-06-10T20:05:46.699Z,5.23
2017-06-10T20:08:14.209Z,6.47
2017-06-10T20:10:41.741Z,4.40
2017-06-10T20:13:09.257Z,4.60
2017-06-10T20:15:37.224Z,4.30
2017-06-10T20:18:05.512Z,4.50
2017-06-10T20:20:33.005Z,4.87
2017-06-10T20:23:00.519Z,4.87
2017-06-10T20:25:28.024Z,4.67
2017-06-10T20:27:55.927Z,7.80
2017-06-10T20:30:23.449Z,3.30
2017-06-10T20:32:50.962Z,4.18
2017-06-10T20:35:19.249Z,3.53
2017-06-10T20:37:46.766Z,6.40
2017-06-10T20:40:14.543Z,4.17
2017-06-10T20:42:42.053Z,5.70
2017-06-10T20:45:09.582Z,4.70
2017-06-10T20:47:37.857Z,5.30
2017-06-10T20:50:06.133Z,4.45
2017-06-10T20:52:34.705Z,7.60
2017-06-10T20:55:02.220Z,8.30
2017-06-10T20:57:29.754Z,4.80
2017-06-10T20:59:57.270Z,5.20
2017-06-10T21:02:24.781Z,3.77
2017-06-10T21:04:52.627Z,5.00
2017-06-10T21:07:20.148Z,4.47
2017-06-10T21:09:47.644Z,4.10
2017-06-10T21:12:15.173Z,2.80
2017-06-10T21:14:42.691Z,4.10
2017-06-10T21:17:10.489Z,4.47
2017-06-10T21:19:37.994Z,5.70
2017-06-10T21:22:06.261Z,7.80
2017-06-10T21:24:33.784Z,4.37
2017-06-10T21:27:01.306Z,6.20
2017-06-10T21:29:29.244Z,3.70
2017-06-10T21:31:56.737Z,4.00
2017-06-10T21:34:24.270Z,4.57
2017-06-10T21:36:51.792Z,5.10
2017-06-10T21:39:19.309Z,6.13
2017-06-10T21:41:47.242Z,6.70
2017-06-10T21:44:14.758Z,4.80
2017-06-10T21:46:42.265Z,5.83
2017-06-10T21:49:09.791Z,4.73
2017-06-10T21:51:37.290Z,5.33
2017-06-10T21:54:05.989Z,8.10
2017-06-10T21:56:34.283Z,4.63
2017-06-10T21:59:01.776Z,4.77
2017-06-10T22:01:29.300Z,5.97
2017-06-10T22:03:56.813Z,7.70
2017-06-10T22:06:24.583Z,13.70
2017-06-10T22:08:52.089Z,7.83
2017-06-10T22:11:19.713Z,10.97
2017-06-10T22:13:47.254Z,8.20
2017-06-10T22:16:14.769Z,5.30
2017-06-10T22:18:42.625Z,7.20
2017-06-10T22:21:10.142Z,7.10
2017-06-10T22:23:37.677Z,7.90
2017-06-10T22:26:05.201Z,9.50
2017-06-10T22:28:32.844Z,11.23
2017-06-10T22:31:01.167Z,10.73
2017-06-10T22:33:28.701Z,8.37
2017-06-10T22:35:56.970Z,9.17
2017-06-10T22:38:24.499Z,8.63
2017-06-10T22:40:52.027Z,10.00
2017-06-10T22:43:19.550Z,8.77
2017-06-10T22:45:47.835Z,9.60
2017-06-10T22:48:16.134Z,8.00
2017-06-10T22:50:43.692Z,9.77
2017-06-10T22:53:11.198Z,8.70
2017-06-10T22:55:38.709Z,11.63
2017-06-10T22:58:06.235Z,9.50
2017-06-10T23:00:33.744Z,7.20
2017-06-10T23:03:01.272Z,8.60
2017-06-10T23:05:28.782Z,13.30
2017-06-10T23:07:56.286Z,9.57
2017-06-10T23:10:23.793Z,8.53
2017-06-10T23:12:51.300Z,6.60
2017-06-10T23:15:18.838Z,7.77
2017-06-10T23:17:46.347Z,7.87
2017-06-10T23:20:13.841Z,9.30
2017-06-10T23:22:41.376Z,10.03
2017-06-10T23:25:08.881Z,9.50
2017-06-10T23:27:36.418Z,8.57
2017-06-10T23:30:03.930Z,7.40
2017-06-10T23:32:31.425Z,10.77
2017-06-10T23:34:58.961Z,11.20
2017-06-10T23:37:26.474Z,9.30
2017-06-10T23:39:54.448Z,11.10
2017-06-10T23:42:21.975Z,7.60
2017-06-10T23:44:49.476Z,7.63
2017-06-10T23:47:17.776Z,7.00
2017-06-10T23:49:45.273Z,7.63
2017-06-10T23:52:12.816Z,7.60
2017-06-10T23:54:40.331Z,8.70
2017-06-10T23:57:07.870Z,6.40
2017-06-10T23:59:35.388Z,11.00
